Terminal Aerodrome Forecast
Issued by NWS Los Angeles, CA

Home | Current Version | Previous Version | Text Only | Print | Product List | Glossary On
Versions: 1 2 3 4 5 6 7 8 9 10 11 12 13 14 15 16 17 18 19 20
000
FTUS46 KLOX 222300
TAFSMX
TAF
KSMX 222339Z 2300/2324 31014KT P6SM SKC
     FM230300 31007KT P6SM SKC
     FM230600 VRB03KT 6SM BR OVC008
     FM231100 VRB03KT 1SM BR OVC002
     FM231600 VRB03KT 4SM BR OVC004
     FM231800 31004KT P6SM SCT010
     FM232000 30011KT P6SM SKC=

USA.gov is the U.S. government's official web portal to all federal, state and local government web resources and services.